sensor_id;sensor_type;location;lat;lon;timestamp;P1;durP1;ratioP1;P2;durP2;ratioP2
19861;SDS011;10093;48.148;8.542;2023-10-31T00:00:44;0.55;;;0.10;;
19861;SDS011;10093;48.148;8.542;2023-10-31T00:03:10;0.90;;;0.10;;
19861;SDS011;10093;48.148;8.542;2023-10-31T00:05:36;3.47;;;0.20;;
19861;SDS011;10093;48.148;8.542;2023-10-31T00:08:01;2.00;;;0.10;;
19861;SDS011;10093;48.148;8.542;2023-10-31T00:10:27;0.63;;;0.10;;
19861;SDS011;10093;48.148;8.542;2023-10-31T00:12:53;0.17;;;0.17;;
19861;SDS011;10093;48.148;8.542;2023-10-31T00:15:18;0.38;;;0.20;;
19861;SDS011;10093;48.148;8.542;2023-10-31T00:17:44;0.30;;;0.10;;
19861;SDS011;10093;48.148;8.542;2023-10-31T00:20:10;0.10;;;0.10;;
19861;SDS011;10093;48.148;8.542;2023-10-31T00:22:35;0.30;;;0.10;;
19861;SDS011;10093;48.148;8.542;2023-10-31T00:25:01;0.47;;;0.10;;
19861;SDS011;10093;48.148;8.542;2023-10-31T00:27:27;0.10;;;0.10;;
19861;SDS011;10093;48.148;8.542;2023-10-31T00:29:52;0.55;;;0.10;;
19861;SDS011;10093;48.148;8.542;2023-10-31T00:32:18;0.43;;;0.20;;
19861;SDS011;10093;48.148;8.542;2023-10-31T00:34:44;0.63;;;0.20;;
19861;SDS011;10093;48.148;8.542;2023-10-31T00:37:09;2.28;;;0.10;;
19861;SDS011;10093;48.148;8.542;2023-10-31T00:39:35;2.53;;;0.10;;
19861;SDS011;10093;48.148;8.542;2023-10-31T00:42:00;1.48;;;0.20;;
19861;SDS011;10093;48.148;8.542;2023-10-31T00:44:26;0.20;;;0.20;;
19861;SDS011;10093;48.148;8.542;2023-10-31T00:46:51;0.73;;;0.10;;
19861;SDS011;10093;48.148;8.542;2023-10-31T00:49:17;0.70;;;0.20;;
19861;SDS011;10093;48.148;8.542;2023-10-31T00:51:42;0.40;;;0.10;;
19861;SDS011;10093;48.148;8.542;2023-10-31T00:54:08;0.43;;;0.10;;
19861;SDS011;10093;48.148;8.542;2023-10-31T00:56:34;0.10;;;0.10;;
19861;SDS011;10093;48.148;8.542;2023-10-31T00:58:59;1.27;;;0.10;;
19861;SDS011;10093;48.148;8.542;2023-10-31T01:01:25;0.17;;;0.10;;
19861;SDS011;10093;48.148;8.542;2023-10-31T01:03:51;0.30;;;0.10;;
19861;SDS011;10093;48.148;8.542;2023-10-31T01:06:16;0.08;;;0.05;;
19861;SDS011;10093;48.148;8.542;2023-10-31T01:08:42;1.08;;;0.10;;
19861;SDS011;10093;48.148;8.542;2023-10-31T01:11:07;2.00;;;0.10;;
19861;SDS011;10093;48.148;8.542;2023-10-31T01:13:33;1.05;;;0.10;;
19861;SDS011;10093;48.148;8.542;2023-10-31T01:15:59;0.80;;;0.10;;
19861;SDS011;10093;48.148;8.542;2023-10-31T01:18:24;1.27;;;0.10;;
19861;SDS011;10093;48.148;8.542;2023-10-31T01:20:51;0.10;;;0.10;;
19861;SDS011;10093;48.148;8.542;2023-10-31T01:23:16;1.52;;;0.15;;
19861;SDS011;10093;48.148;8.542;2023-10-31T01:25:42;1.27;;;0.20;;
19861;SDS011;10093;48.148;8.542;2023-10-31T01:28:08;0.35;;;0.20;;
19861;SDS011;10093;48.148;8.542;2023-10-31T01:30:33;0.77;;;0.22;;
19861;SDS011;10093;48.148;8.542;2023-10-31T01:32:59;3.17;;;0.20;;
19861;SDS011;10093;48.148;8.542;2023-10-31T01:35:24;1.08;;;0.20;;
19861;SDS011;10093;48.148;8.542;2023-10-31T01:37:50;0.20;;;0.20;;
19861;SDS011;10093;48.148;8.542;2023-10-31T01:40:16;0.20;;;0.20;;
19861;SDS011;10093;48.148;8.542;2023-10-31T01:42:41;1.30;;;0.28;;
19861;SDS011;10093;48.148;8.542;2023-10-31T01:45:07;0.30;;;0.10;;
19861;SDS011;10093;48.148;8.542;2023-10-31T01:47:33;0.47;;;0.20;;
19861;SDS011;10093;48.148;8.542;2023-10-31T01:49:59;1.58;;;0.20;;
19861;SDS011;10093;48.148;8.542;2023-10-31T01:52:25;0.40;;;0.30;;
19861;SDS011;10093;48.148;8.542;2023-10-31T01:54:51;0.10;;;0.10;;
19861;SDS011;10093;48.148;8.542;2023-10-31T01:57:21;1.85;;;0.10;;
19861;SDS011;10093;48.148;8.542;2023-10-31T01:59:47;2.47;;;0.20;;
19861;SDS011;10093;48.148;8.542;2023-10-31T02:02:13;1.35;;;0.38;;
19861;SDS011;10093;48.148;8.542;2023-10-31T02:04:39;0.57;;;0.20;;
19861;SDS011;10093;48.148;8.542;2023-10-31T02:07:04;0.73;;;0.20;;
19861;SDS011;10093;48.148;8.542;2023-10-31T02:09:31;0.25;;;0.20;;
19861;SDS011;10093;48.148;8.542;2023-10-31T02:11:57;0.13;;;0.10;;
19861;SDS011;10093;48.148;8.542;2023-10-31T02:14:23;0.40;;;0.25;;
19861;SDS011;10093;48.148;8.542;2023-10-31T02:16:49;1.45;;;0.10;;
19861;SDS011;10093;48.148;8.542;2023-10-31T02:19:16;1.55;;;0.30;;
19861;SDS011;10093;48.148;8.542;2023-10-31T02:21:45;1.08;;;0.10;;
19861;SDS011;10093;48.148;8.542;2023-10-31T02:24:11;1.00;;;0.20;;
19861;SDS011;10093;48.148;8.542;2023-10-31T02:26:36;0.32;;;0.20;;
19861;SDS011;10093;48.148;8.542;2023-10-31T02:29:02;0.40;;;0.10;;
19861;SDS011;10093;48.148;8.542;2023-10-31T02:31:28;0.60;;;0.20;;
19861;SDS011;10093;48.148;8.542;2023-10-31T02:33:54;1.95;;;0.20;;
19861;SDS011;10093;48.148;8.542;2023-10-31T02:36:21;2.65;;;0.20;;
19861;SDS011;10093;48.148;8.542;2023-10-31T02:38:47;1.25;;;0.40;;
19861;SDS011;10093;48.148;8.542;2023-10-31T02:41:13;1.55;;;0.20;;
19861;SDS011;10093;48.148;8.542;2023-10-31T02:43:39;0.77;;;0.20;;
19861;SDS011;10093;48.148;8.542;2023-10-31T02:46:05;1.65;;;0.20;;
19861;SDS011;10093;48.148;8.542;2023-10-31T02:48:31;1.10;;;0.20;;
19861;SDS011;10093;48.148;8.542;2023-10-31T02:51:03;1.05;;;0.28;;
19861;SDS011;10093;48.148;8.542;2023-10-31T02:53:29;0.20;;;0.20;;
19861;SDS011;10093;48.148;8.542;2023-10-31T02:55:55;0.22;;;0.10;;
19861;SDS011;10093;48.148;8.542;2023-10-31T02:58:20;0.50;;;0.20;;
19861;SDS011;10093;48.148;8.542;2023-10-31T03:00:46;0.20;;;0.20;;
19861;SDS011;10093;48.148;8.542;2023-10-31T03:03:12;0.20;;;0.20;;
19861;SDS011;10093;48.148;8.542;2023-10-31T03:05:37;0.30;;;0.20;;
19861;SDS011;10093;48.148;8.542;2023-10-31T03:08:03;1.15;;;0.30;;
19861;SDS011;10093;48.148;8.542;2023-10-31T03:10:28;0.20;;;0.20;;
19861;SDS011;10093;48.148;8.542;2023-10-31T03:12:54;1.45;;;0.20;;
19861;SDS011;10093;48.148;8.542;2023-10-31T03:15:20;0.20;;;0.20;;
19861;SDS011;10093;48.148;8.542;2023-10-31T03:17:46;0.90;;;0.20;;
19861;SDS011;10093;48.148;8.542;2023-10-31T03:20:11;0.20;;;0.20;;
19861;SDS011;10093;48.148;8.542;2023-10-31T03:22:37;1.45;;;0.20;;
19861;SDS011;10093;48.148;8.542;2023-10-31T03:25:03;0.38;;;0.20;;
19861;SDS011;10093;48.148;8.542;2023-10-31T03:27:29;3.40;;;0.20;;
19861;SDS011;10093;48.148;8.542;2023-10-31T03:29:54;1.48;;;0.20;;
19861;SDS011;10093;48.148;8.542;2023-10-31T03:32:20;1.50;;;0.10;;
19861;SDS011;10093;48.148;8.542;2023-10-31T03:34:45;0.85;;;0.35;;
19861;SDS011;10093;48.148;8.542;2023-10-31T03:37:11;2.33;;;0.20;;
19861;SDS011;10093;48.148;8.542;2023-10-31T03:39:37;1.42;;;0.20;;
19861;SDS011;10093;48.148;8.542;2023-10-31T03:42:02;2.33;;;0.20;;
19861;SDS011;10093;48.148;8.542;2023-10-31T03:44:30;0.90;;;0.10;;
19861;SDS011;10093;48.148;8.542;2023-10-31T03:46:55;0.10;;;0.10;;
19861;SDS011;10093;48.148;8.542;2023-10-31T03:49:21;0.15;;;0.10;;
19861;SDS011;10093;48.148;8.542;2023-10-31T03:51:46;0.13;;;0.10;;
19861;SDS011;10093;48.148;8.542;2023-10-31T03:54:12;2.53;;;0.10;;
19861;SDS011;10093;48.148;8.542;2023-10-31T03:56:39;0.35;;;0.10;;
19861;SDS011;10093;48.148;8.542;2023-10-31T03:59:05;0.45;;;0.10;;
19861;SDS011;10093;48.148;8.542;2023-10-31T04:01:31;0.47;;;0.10;;
19861;SDS011;10093;48.148;8.542;2023-10-31T04:03:57;1.55;;;0.10;;
19861;SDS011;10093;48.148;8.542;2023-10-31T04:06:22;0.30;;;0.10;;
19861;SDS011;10093;48.148;8.542;2023-10-31T04:08:48;0.60;;;0.10;;
19861;SDS011;10093;48.148;8.542;2023-10-31T04:11:13;1.13;;;0.10;;
19861;SDS011;10093;48.148;8.542;2023-10-31T04:13:39;2.42;;;0.10;;
19861;SDS011;10093;48.148;8.542;2023-10-31T04:16:04;2.72;;;0.20;;
19861;SDS011;10093;48.148;8.542;2023-10-31T04:18:30;3.45;;;0.13;;
19861;SDS011;10093;48.148;8.542;2023-10-31T04:20:56;1.55;;;0.20;;
19861;SDS011;10093;48.148;8.542;2023-10-31T04:23:21;1.27;;;0.17;;
19861;SDS011;10093;48.148;8.542;2023-10-31T04:25:47;1.13;;;0.03;;
19861;SDS011;10093;48.148;8.542;2023-10-31T04:28:12;0.10;;;0.10;;
19861;SDS011;10093;48.148;8.542;2023-10-31T04:30:39;0.85;;;0.10;;
19861;SDS011;10093;48.148;8.542;2023-10-31T04:33:05;0.20;;;0.10;;
19861;SDS011;10093;48.148;8.542;2023-10-31T04:35:30;4.57;;;0.20;;
19861;SDS011;10093;48.148;8.542;2023-10-31T04:37:56;1.63;;;0.10;;
19861;SDS011;10093;48.148;8.542;2023-10-31T04:40:22;0.68;;;0.20;;
19861;SDS011;10093;48.148;8.542;2023-10-31T04:42:47;0.30;;;0.20;;
19861;SDS011;10093;48.148;8.542;2023-10-31T04:45:13;2.08;;;0.22;;
19861;SDS011;10093;48.148;8.542;2023-10-31T04:47:39;0.10;;;0.10;;
19861;SDS011;10093;48.148;8.542;2023-10-31T04:50:05;0.20;;;0.20;;
19861;SDS011;10093;48.148;8.542;2023-10-31T04:52:31;0.75;;;0.20;;
19861;SDS011;10093;48.148;8.542;2023-10-31T04:54:56;1.85;;;0.20;;
19861;SDS011;10093;48.148;8.542;2023-10-31T04:57:22;0.50;;;0.20;;
19861;SDS011;10093;48.148;8.542;2023-10-31T04:59:48;0.28;;;0.10;;
19861;SDS011;10093;48.148;8.542;2023-10-31T05:02:13;1.10;;;0.30;;
19861;SDS011;10093;48.148;8.542;2023-10-31T05:04:39;2.20;;;0.30;;
19861;SDS011;10093;48.148;8.542;2023-10-31T05:07:08;0.68;;;0.20;;
19861;SDS011;10093;48.148;8.542;2023-10-31T05:09:33;3.42;;;0.30;;
19861;SDS011;10093;48.148;8.542;2023-10-31T05:14:45;0.95;;;0.30;;
19861;SDS011;10093;48.148;8.542;2023-10-31T05:17:10;2.35;;;0.30;;
19861;SDS011;10093;48.148;8.542;2023-10-31T05:19:36;0.88;;;0.30;;
19861;SDS011;10093;48.148;8.542;2023-10-31T05:22:01;0.88;;;0.38;;
19861;SDS011;10093;48.148;8.542;2023-10-31T05:24:27;4.57;;;0.50;;
19861;SDS011;10093;48.148;8.542;2023-10-31T05:26:53;2.08;;;0.47;;
19861;SDS011;10093;48.148;8.542;2023-10-31T05:29:18;3.50;;;0.45;;
19861;SDS011;10093;48.148;8.542;2023-10-31T05:31:44;3.03;;;1.20;;
19861;SDS011;10093;48.148;8.542;2023-10-31T05:34:10;2.50;;;1.17;;
19861;SDS011;10093;48.148;8.542;2023-10-31T05:36:35;1.00;;;0.90;;
19861;SDS011;10093;48.148;8.542;2023-10-31T05:39:01;1.92;;;0.70;;
19861;SDS011;10093;48.148;8.542;2023-10-31T05:41:26;2.75;;;0.93;;
19861;SDS011;10093;48.148;8.542;2023-10-31T05:43:52;5.90;;;0.77;;
19861;SDS011;10093;48.148;8.542;2023-10-31T05:46:18;3.92;;;1.48;;
19861;SDS011;10093;48.148;8.542;2023-10-31T05:48:44;6.57;;;2.15;;
19861;SDS011;10093;48.148;8.542;2023-10-31T05:51:14;5.63;;;4.03;;
19861;SDS011;10093;48.148;8.542;2023-10-31T05:53:43;1.80;;;0.60;;
19861;SDS011;10093;48.148;8.542;2023-10-31T05:56:10;3.78;;;2.20;;
19861;SDS011;10093;48.148;8.542;2023-10-31T05:58:37;2.65;;;1.52;;
19861;SDS011;10093;48.148;8.542;2023-10-31T06:01:03;1.92;;;1.00;;
19861;SDS011;10093;48.148;8.542;2023-10-31T06:03:29;5.68;;;0.80;;
19861;SDS011;10093;48.148;8.542;2023-10-31T06:05:55;2.50;;;0.90;;
19861;SDS011;10093;48.148;8.542;2023-10-31T06:08:20;3.22;;;1.20;;
19861;SDS011;10093;48.148;8.542;2023-10-31T06:10:46;1.58;;;0.95;;
19861;SDS011;10093;48.148;8.542;2023-10-31T06:13:12;1.60;;;1.27;;
19861;SDS011;10093;48.148;8.542;2023-10-31T06:15:37;4.05;;;1.15;;
19861;SDS011;10093;48.148;8.542;2023-10-31T06:18:03;2.53;;;1.30;;
19861;SDS011;10093;48.148;8.542;2023-10-31T06:20:28;4.13;;;1.10;;
19861;SDS011;10093;48.148;8.542;2023-10-31T06:22:54;5.22;;;1.10;;
19861;SDS011;10093;48.148;8.542;2023-10-31T06:25:20;1.92;;;1.10;;
19861;SDS011;10093;48.148;8.542;2023-10-31T06:27:45;3.88;;;1.52;;
19861;SDS011;10093;48.148;8.542;2023-10-31T06:30:11;5.80;;;3.67;;
19861;SDS011;10093;48.148;8.542;2023-10-31T06:32:37;6.00;;;3.88;;
19861;SDS011;10093;48.148;8.542;2023-10-31T06:35:05;5.50;;;4.45;;
19861;SDS011;10093;48.148;8.542;2023-10-31T06:37:32;7.85;;;3.15;;
19861;SDS011;10093;48.148;8.542;2023-10-31T06:39:57;5.55;;;2.92;;
19861;SDS011;10093;48.148;8.542;2023-10-31T06:42:23;6.47;;;3.53;;
19861;SDS011;10093;48.148;8.542;2023-10-31T06:44:48;8.57;;;3.55;;
19861;SDS011;10093;48.148;8.542;2023-10-31T06:47:14;6.72;;;3.83;;
19861;SDS011;10093;48.148;8.542;2023-10-31T06:49:39;8.80;;;2.80;;
19861;SDS011;10093;48.148;8.542;2023-10-31T06:52:05;6.60;;;3.17;;
19861;SDS011;10093;48.148;8.542;2023-10-31T06:54:31;4.60;;;3.10;;
19861;SDS011;10093;48.148;8.542;2023-10-31T06:56:56;9.32;;;3.90;;
19861;SDS011;10093;48.148;8.542;2023-10-31T06:59:22;10.05;;;3.42;;
19861;SDS011;10093;48.148;8.542;2023-10-31T07:01:48;5.82;;;3.60;;
19861;SDS011;10093;48.148;8.542;2023-10-31T07:04:13;6.50;;;3.25;;
19861;SDS011;10093;48.148;8.542;2023-10-31T07:06:39;5.53;;;3.20;;
19861;SDS011;10093;48.148;8.542;2023-10-31T07:09:04;6.03;;;2.72;;
19861;SDS011;10093;48.148;8.542;2023-10-31T07:11:30;3.47;;;2.30;;
19861;SDS011;10093;48.148;8.542;2023-10-31T07:13:59;5.38;;;2.45;;
19861;SDS011;10093;48.148;8.542;2023-10-31T07:16:28;3.15;;;1.85;;
19861;SDS011;10093;48.148;8.542;2023-10-31T07:18:54;2.85;;;1.75;;
19861;SDS011;10093;48.148;8.542;2023-10-31T07:21:20;8.90;;;3.00;;
19861;SDS011;10093;48.148;8.542;2023-10-31T07:23:45;5.28;;;2.20;;
19861;SDS011;10093;48.148;8.542;2023-10-31T07:26:11;7.63;;;2.67;;
19861;SDS011;10093;48.148;8.542;2023-10-31T07:28:37;6.93;;;2.28;;
19861;SDS011;10093;48.148;8.542;2023-10-31T07:31:02;8.50;;;2.00;;
19861;SDS011;10093;48.148;8.542;2023-10-31T07:33:29;6.97;;;1.65;;
19861;SDS011;10093;48.148;8.542;2023-10-31T07:35:54;8.20;;;2.08;;
19861;SDS011;10093;48.148;8.542;2023-10-31T07:38:20;3.72;;;1.90;;
19861;SDS011;10093;48.148;8.542;2023-10-31T07:40:45;6.45;;;1.70;;
19861;SDS011;10093;48.148;8.542;2023-10-31T07:43:13;8.63;;;2.35;;
19861;SDS011;10093;48.148;8.542;2023-10-31T07:45:39;3.97;;;1.60;;
19861;SDS011;10093;48.148;8.542;2023-10-31T07:48:04;4.20;;;1.05;;
19861;SDS011;10093;48.148;8.542;2023-10-31T07:50:31;2.55;;;1.33;;
19861;SDS011;10093;48.148;8.542;2023-10-31T07:52:56;5.70;;;1.60;;
19861;SDS011;10093;48.148;8.542;2023-10-31T07:55:22;3.72;;;1.40;;
19861;SDS011;10093;48.148;8.542;2023-10-31T07:57:48;2.83;;;1.00;;
19861;SDS011;10093;48.148;8.542;2023-10-31T08:00:13;2.78;;;1.35;;
19861;SDS011;10093;48.148;8.542;2023-10-31T08:02:39;7.95;;;1.80;;
19861;SDS011;10093;48.148;8.542;2023-10-31T08:05:05;8.88;;;1.17;;
19861;SDS011;10093;48.148;8.542;2023-10-31T08:07:32;5.07;;;1.38;;
19861;SDS011;10093;48.148;8.542;2023-10-31T08:09:57;4.90;;;1.33;;
19861;SDS011;10093;48.148;8.542;2023-10-31T08:12:23;2.45;;;0.75;;
19861;SDS011;10093;48.148;8.542;2023-10-31T08:14:49;5.07;;;1.00;;
19861;SDS011;10093;48.148;8.542;2023-10-31T08:17:14;1.80;;;0.68;;
19861;SDS011;10093;48.148;8.542;2023-10-31T08:19:40;5.35;;;0.70;;
19861;SDS011;10093;48.148;8.542;2023-10-31T08:22:06;2.13;;;0.70;;
19861;SDS011;10093;48.148;8.542;2023-10-31T08:24:31;3.55;;;0.80;;
19861;SDS011;10093;48.148;8.542;2023-10-31T08:26:58;0.98;;;0.52;;
19861;SDS011;10093;48.148;8.542;2023-10-31T08:29:24;4.22;;;0.80;;
19861;SDS011;10093;48.148;8.542;2023-10-31T08:31:49;2.58;;;0.90;;
19861;SDS011;10093;48.148;8.542;2023-10-31T08:34:15;5.78;;;0.70;;
19861;SDS011;10093;48.148;8.542;2023-10-31T08:36:41;4.15;;;0.85;;
19861;SDS011;10093;48.148;8.542;2023-10-31T08:39:06;4.35;;;0.70;;
19861;SDS011;10093;48.148;8.542;2023-10-31T08:41:32;7.18;;;0.98;;
19861;SDS011;10093;48.148;8.542;2023-10-31T08:43:58;5.20;;;0.60;;
19861;SDS011;10093;48.148;8.542;2023-10-31T08:46:24;3.58;;;0.68;;
19861;SDS011;10093;48.148;8.542;2023-10-31T08:48:50;4.57;;;0.60;;
19861;SDS011;10093;48.148;8.542;2023-10-31T08:51:15;4.15;;;0.40;;
19861;SDS011;10093;48.148;8.542;2023-10-31T08:53:41;7.63;;;0.50;;
19861;SDS011;10093;48.148;8.542;2023-10-31T08:56:07;6.65;;;0.50;;
19861;SDS011;10093;48.148;8.542;2023-10-31T08:58:32;4.30;;;0.40;;
19861;SDS011;10093;48.148;8.542;2023-10-31T09:00:58;5.47;;;0.45;;
19861;SDS011;10093;48.148;8.542;2023-10-31T09:03:24;3.55;;;0.40;;
19861;SDS011;10093;48.148;8.542;2023-10-31T09:05:49;3.03;;;0.50;;
19861;SDS011;10093;48.148;8.542;2023-10-31T09:08:15;2.53;;;0.40;;
19861;SDS011;10093;48.148;8.542;2023-10-31T09:10:41;5.45;;;0.50;;
19861;SDS011;10093;48.148;8.542;2023-10-31T09:13:10;4.32;;;0.40;;
19861;SDS011;10093;48.148;8.542;2023-10-31T09:15:36;2.97;;;0.40;;
19861;SDS011;10093;48.148;8.542;2023-10-31T09:18:02;2.63;;;0.55;;
19861;SDS011;10093;48.148;8.542;2023-10-31T09:20:27;5.53;;;0.40;;
19861;SDS011;10093;48.148;8.542;2023-10-31T09:22:54;3.72;;;0.63;;
19861;SDS011;10093;48.148;8.542;2023-10-31T09:25:20;2.92;;;0.50;;
19861;SDS011;10093;48.148;8.542;2023-10-31T09:27:45;4.18;;;0.32;;
19861;SDS011;10093;48.148;8.542;2023-10-31T09:30:11;0.57;;;0.32;;
19861;SDS011;10093;48.148;8.542;2023-10-31T09:32:37;1.48;;;0.30;;
19861;SDS011;10093;48.148;8.542;2023-10-31T09:35:03;3.03;;;0.30;;
19861;SDS011;10093;48.148;8.542;2023-10-31T09:37:29;4.03;;;0.30;;
19861;SDS011;10093;48.148;8.542;2023-10-31T09:39:54;0.90;;;0.35;;
19861;SDS011;10093;48.148;8.542;2023-10-31T09:42:20;4.28;;;0.30;;
19861;SDS011;10093;48.148;8.542;2023-10-31T09:44:45;1.85;;;0.30;;
19861;SDS011;10093;48.148;8.542;2023-10-31T09:47:11;1.52;;;0.32;;
19861;SDS011;10093;48.148;8.542;2023-10-31T09:49:37;2.67;;;0.30;;
19861;SDS011;10093;48.148;8.542;2023-10-31T09:52:03;3.25;;;0.30;;
19861;SDS011;10093;48.148;8.542;2023-10-31T09:54:29;2.60;;;0.40;;
19861;SDS011;10093;48.148;8.542;2023-10-31T09:56:55;2.67;;;0.40;;
19861;SDS011;10093;48.148;8.542;2023-10-31T09:59:20;3.75;;;0.35;;
19861;SDS011;10093;48.148;8.542;2023-10-31T10:01:46;2.08;;;0.50;;
19861;SDS011;10093;48.148;8.542;2023-10-31T10:04:11;2.92;;;0.30;;
19861;SDS011;10093;48.148;8.542;2023-10-31T10:06:50;1.17;;;0.20;;
19861;SDS011;10093;48.148;8.542;2023-10-31T10:09:17;2.53;;;0.30;;
19861;SDS011;10093;48.148;8.542;2023-10-31T10:11:42;1.42;;;0.40;;
19861;SDS011;10093;48.148;8.542;2023-10-31T10:14:08;1.05;;;0.20;;
19861;SDS011;10093;48.148;8.542;2023-10-31T10:16:35;0.65;;;0.20;;
19861;SDS011;10093;48.148;8.542;2023-10-31T10:19:20;0.52;;;0.10;;
19861;SDS011;10093;48.148;8.542;2023-10-31T10:21:54;0.60;;;0.10;;
19861;SDS011;10093;48.148;8.542;2023-10-31T10:24:22;0.75;;;0.00;;
19861;SDS011;10093;48.148;8.542;2023-10-31T10:26:48;1.45;;;0.10;;
19861;SDS011;10093;48.148;8.542;2023-10-31T10:29:15;0.30;;;0.00;;
19861;SDS011;10093;48.148;8.542;2023-10-31T10:31:41;0.25;;;0.00;;
19861;SDS011;10093;48.148;8.542;2023-10-31T10:34:07;0.10;;;0.10;;
19861;SDS011;10093;48.148;8.542;2023-10-31T10:36:34;0.52;;;0.00;;
19861;SDS011;10093;48.148;8.542;2023-10-31T10:39:00;0.60;;;0.10;;
19861;SDS011;10093;48.148;8.542;2023-10-31T10:41:26;1.35;;;0.40;;
19861;SDS011;10093;48.148;8.542;2023-10-31T10:43:54;0.17;;;0.00;;
19861;SDS011;10093;48.148;8.542;2023-10-31T10:46:34;0.80;;;0.00;;
19861;SDS011;10093;48.148;8.542;2023-10-31T10:49:03;0.10;;;0.10;;
19861;SDS011;10093;48.148;8.542;2023-10-31T10:59:58;0.38;;;0.10;;
19861;SDS011;10093;48.148;8.542;2023-10-31T11:02:29;0.10;;;0.10;;
19861;SDS011;10093;48.148;8.542;2023-10-31T11:04:56;0.40;;;0.20;;
19861;SDS011;10093;48.148;8.542;2023-10-31T11:07:23;2.03;;;0.10;;
19861;SDS011;10093;48.148;8.542;2023-10-31T11:09:51;1.67;;;0.10;;
19861;SDS011;10093;48.148;8.542;2023-10-31T11:12:17;0.77;;;0.10;;
19861;SDS011;10093;48.148;8.542;2023-10-31T11:14:45;5.85;;;0.10;;
19861;SDS011;10093;48.148;8.542;2023-10-31T11:17:14;0.70;;;0.10;;
19861;SDS011;10093;48.148;8.542;2023-10-31T11:19:52;1.25;;;0.10;;
19861;SDS011;10093;48.148;8.542;2023-10-31T11:22:19;0.82;;;0.10;;
19861;SDS011;10093;48.148;8.542;2023-10-31T11:24:45;0.95;;;0.10;;
19861;SDS011;10093;48.148;8.542;2023-10-31T11:27:11;1.00;;;0.15;;
19861;SDS011;10093;48.148;8.542;2023-10-31T11:29:36;0.25;;;0.10;;
19861;SDS011;10093;48.148;8.542;2023-10-31T11:32:02;0.03;;;0.03;;
19861;SDS011;10093;48.148;8.542;2023-10-31T11:34:31;0.95;;;0.10;;
19861;SDS011;10093;48.148;8.542;2023-10-31T11:37:18;4.70;;;0.20;;
19861;SDS011;10093;48.148;8.542;2023-10-31T11:42:43;0.60;;;0.10;;
19861;SDS011;10093;48.148;8.542;2023-10-31T11:45:12;1.40;;;0.10;;
19861;SDS011;10093;48.148;8.542;2023-10-31T11:47:47;1.27;;;0.10;;
19861;SDS011;10093;48.148;8.542;2023-10-31T11:50:14;0.55;;;0.10;;
19861;SDS011;10093;48.148;8.542;2023-10-31T11:52:39;2.90;;;0.20;;
19861;SDS011;10093;48.148;8.542;2023-10-31T11:55:09;0.98;;;0.10;;
19861;SDS011;10093;48.148;8.542;2023-10-31T11:57:35;1.13;;;0.20;;
19861;SDS011;10093;48.148;8.542;2023-10-31T12:00:02;3.60;;;0.15;;
19861;SDS011;10093;48.148;8.542;2023-10-31T12:02:29;1.42;;;0.10;;
19861;SDS011;10093;48.148;8.542;2023-10-31T12:05:10;0.63;;;0.05;;
19861;SDS011;10093;48.148;8.542;2023-10-31T12:07:43;0.75;;;0.28;;
19861;SDS011;10093;48.148;8.542;2023-10-31T12:10:10;1.02;;;0.10;;
19861;SDS011;10093;48.148;8.542;2023-10-31T12:12:36;0.52;;;0.20;;
19861;SDS011;10093;48.148;8.542;2023-10-31T12:15:08;0.45;;;0.10;;
19861;SDS011;10093;48.148;8.542;2023-10-31T12:17:34;1.98;;;0.10;;
19861;SDS011;10093;48.148;8.542;2023-10-31T12:20:04;0.75;;;0.10;;
19861;SDS011;10093;48.148;8.542;2023-10-31T12:22:31;0.30;;;0.10;;
19861;SDS011;10093;48.148;8.542;2023-10-31T12:25:04;0.10;;;0.10;;
19861;SDS011;10093;48.148;8.542;2023-10-31T12:27:47;0.47;;;0.10;;
19861;SDS011;10093;48.148;8.542;2023-10-31T12:30:17;0.43;;;0.10;;
19861;SDS011;10093;48.148;8.542;2023-10-31T12:32:45;0.40;;;0.10;;
19861;SDS011;10093;48.148;8.542;2023-10-31T12:35:23;5.32;;;2.83;;
19861;SDS011;10093;48.148;8.542;2023-10-31T12:37:50;0.22;;;0.10;;
19861;SDS011;10093;48.148;8.542;2023-10-31T12:40:17;0.70;;;0.10;;
19861;SDS011;10093;48.148;8.542;2023-10-31T12:42:47;1.58;;;0.10;;
19861;SDS011;10093;48.148;8.542;2023-10-31T12:45:14;1.88;;;0.20;;
19861;SDS011;10093;48.148;8.542;2023-10-31T12:47:42;1.27;;;0.10;;
19861;SDS011;10093;48.148;8.542;2023-10-31T12:50:15;0.40;;;0.10;;
19861;SDS011;10093;48.148;8.542;2023-10-31T12:52:50;0.75;;;0.10;;
19861;SDS011;10093;48.148;8.542;2023-10-31T12:55:20;2.65;;;0.10;;
19861;SDS011;10093;48.148;8.542;2023-10-31T12:57:47;2.20;;;0.10;;
19861;SDS011;10093;48.148;8.542;2023-10-31T13:00:14;0.60;;;0.10;;
19861;SDS011;10093;48.148;8.542;2023-10-31T13:02:43;1.40;;;0.10;;
19861;SDS011;10093;48.148;8.542;2023-10-31T13:05:10;2.08;;;0.10;;
19861;SDS011;10093;48.148;8.542;2023-10-31T13:07:37;0.65;;;0.10;;
19861;SDS011;10093;48.148;8.542;2023-10-31T13:10:03;0.93;;;0.20;;
19861;SDS011;10093;48.148;8.542;2023-10-31T13:12:30;1.55;;;0.30;;
19861;SDS011;10093;48.148;8.542;2023-10-31T13:14:56;0.98;;;0.20;;
19861;SDS011;10093;48.148;8.542;2023-10-31T13:17:21;2.33;;;0.20;;
19861;SDS011;10093;48.148;8.542;2023-10-31T13:19:47;0.57;;;0.30;;
19861;SDS011;10093;48.148;8.542;2023-10-31T13:22:12;0.50;;;0.20;;
19861;SDS011;10093;48.148;8.542;2023-10-31T13:24:38;0.30;;;0.10;;
19861;SDS011;10093;48.148;8.542;2023-10-31T13:27:05;0.10;;;0.10;;
19861;SDS011;10093;48.148;8.542;2023-10-31T13:29:31;2.22;;;0.10;;
19861;SDS011;10093;48.148;8.542;2023-10-31T13:31:58;2.55;;;0.10;;
19861;SDS011;10093;48.148;8.542;2023-10-31T13:34:23;1.65;;;0.20;;
19861;SDS011;10093;48.148;8.542;2023-10-31T13:36:49;1.58;;;0.20;;
19861;SDS011;10093;48.148;8.542;2023-10-31T13:39:15;1.23;;;0.20;;
19861;SDS011;10093;48.148;8.542;2023-10-31T13:41:40;2.38;;;0.20;;
19861;SDS011;10093;48.148;8.542;2023-10-31T13:44:06;0.38;;;0.20;;
19861;SDS011;10093;48.148;8.542;2023-10-31T13:46:32;0.57;;;0.20;;
19861;SDS011;10093;48.148;8.542;2023-10-31T13:48:57;1.25;;;0.15;;
19861;SDS011;10093;48.148;8.542;2023-10-31T13:51:23;0.32;;;0.10;;
19861;SDS011;10093;48.148;8.542;2023-10-31T13:53:48;0.90;;;0.22;;
19861;SDS011;10093;48.148;8.542;2023-10-31T13:56:15;2.25;;;0.20;;
19861;SDS011;10093;48.148;8.542;2023-10-31T13:58:42;5.20;;;0.20;;
19861;SDS011;10093;48.148;8.542;2023-10-31T14:01:07;1.13;;;0.35;;
19861;SDS011;10093;48.148;8.542;2023-10-31T14:03:33;0.75;;;0.20;;
19861;SDS011;10093;48.148;8.542;2023-10-31T14:05:58;1.00;;;0.10;;
19861;SDS011;10093;48.148;8.542;2023-10-31T14:08:24;0.43;;;0.20;;
19861;SDS011;10093;48.148;8.542;2023-10-31T14:10:50;0.98;;;0.20;;
19861;SDS011;10093;48.148;8.542;2023-10-31T14:13:15;0.50;;;0.10;;
19861;SDS011;10093;48.148;8.542;2023-10-31T14:15:41;0.75;;;0.10;;
19861;SDS011;10093;48.148;8.542;2023-10-31T14:18:07;0.98;;;0.20;;
19861;SDS011;10093;48.148;8.542;2023-10-31T14:20:33;3.50;;;0.20;;
19861;SDS011;10093;48.148;8.542;2023-10-31T14:22:58;0.20;;;0.10;;
19861;SDS011;10093;48.148;8.542;2023-10-31T14:25:24;1.17;;;0.20;;
19861;SDS011;10093;48.148;8.542;2023-10-31T14:27:50;1.13;;;0.45;;
19861;SDS011;10093;48.148;8.542;2023-10-31T14:30:15;1.55;;;0.20;;
19861;SDS011;10093;48.148;8.542;2023-10-31T14:32:41;1.10;;;0.17;;
19861;SDS011;10093;48.148;8.542;2023-10-31T14:35:06;0.57;;;0.10;;
19861;SDS011;10093;48.148;8.542;2023-10-31T14:37:33;1.80;;;0.15;;
19861;SDS011;10093;48.148;8.542;2023-10-31T14:39:59;0.47;;;0.10;;
19861;SDS011;10093;48.148;8.542;2023-10-31T14:42:28;0.65;;;0.20;;
19861;SDS011;10093;48.148;8.542;2023-10-31T14:44:54;0.68;;;0.10;;
19861;SDS011;10093;48.148;8.542;2023-10-31T14:47:21;0.55;;;0.20;;
19861;SDS011;10093;48.148;8.542;2023-10-31T14:49:47;0.05;;;0.00;;
19861;SDS011;10093;48.148;8.542;2023-10-31T14:52:13;0.30;;;0.10;;
19861;SDS011;10093;48.148;8.542;2023-10-31T14:54:39;0.10;;;0.05;;
19861;SDS011;10093;48.148;8.542;2023-10-31T14:57:05;0.20;;;0.00;;